sensor_id;sensor_type;location;lat;lon;timestamp;pressure;altitude;pressure_sealevel;temperature;humidity
38022;BME280;23832;43.216;27.946;2023-04-06T00:00:53;100471.59;;;11.18;79.83
38022;BME280;23832;43.216;27.946;2023-04-06T00:02:57;100474.00;;;11.05;80.91
38022;BME280;23832;43.216;27.946;2023-04-06T00:05:00;100476.22;;;11.31;76.14
38022;BME280;23832;43.216;27.946;2023-04-06T00:07:03;100478.16;;;11.37;74.05
38022;BME280;23832;43.216;27.946;2023-04-06T00:09:08;100469.19;;;10.94;77.69
38022;BME280;23832;43.216;27.946;2023-04-06T00:11:10;100469.44;;;10.84;79.16
38022;BME280;23832;43.216;27.946;2023-04-06T00:13:13;100465.53;;;10.95;76.47
38022;BME280;23832;43.216;27.946;2023-04-06T00:15:15;100463.78;;;10.87;74.69
38022;BME280;23832;43.216;27.946;2023-04-06T00:17:17;100467.03;;;10.74;74.86
38022;BME280;23832;43.216;27.946;2023-04-06T00:19:19;100465.41;;;10.73;74.20
38022;BME280;23832;43.216;27.946;2023-04-06T00:21:21;100473.31;;;10.73;74.26
38022;BME280;23832;43.216;27.946;2023-04-06T00:23:23;100468.75;;;10.67;75.01
38022;BME280;23832;43.216;27.946;2023-04-06T00:25:25;100471.63;;;10.80;73.45
38022;BME280;23832;43.216;27.946;2023-04-06T00:27:27;100469.63;;;10.83;74.14
38022;BME280;23832;43.216;27.946;2023-04-06T00:29:30;100467.47;;;11.01;73.03
38022;BME280;23832;43.216;27.946;2023-04-06T00:31:32;100470.47;;;10.98;72.69
38022;BME280;23832;43.216;27.946;2023-04-06T00:33:34;100468.19;;;10.95;72.87
38022;BME280;23832;43.216;27.946;2023-04-06T00:35:35;100460.50;;;10.85;74.23
38022;BME280;23832;43.216;27.946;2023-04-06T00:37:39;100462.97;;;10.87;75.08
38022;BME280;23832;43.216;27.946;2023-04-06T00:39:41;100460.19;;;10.88;75.81
38022;BME280;23832;43.216;27.946;2023-04-06T00:41:44;100470.88;;;10.87;76.30
38022;BME280;23832;43.216;27.946;2023-04-06T00:43:47;100463.59;;;10.74;78.64
38022;BME280;23832;43.216;27.946;2023-04-06T00:45:50;100458.88;;;10.69;78.71
38022;BME280;23832;43.216;27.946;2023-04-06T00:47:52;100460.44;;;10.78;77.84
38022;BME280;23832;43.216;27.946;2023-04-06T00:49:54;100457.09;;;10.99;75.58
38022;BME280;23832;43.216;27.946;2023-04-06T00:51:56;100453.41;;;10.71;77.03
38022;BME280;23832;43.216;27.946;2023-04-06T00:53:58;100454.09;;;10.65;77.99
38022;BME280;23832;43.216;27.946;2023-04-06T00:56:00;100456.50;;;10.74;77.74
38022;BME280;23832;43.216;27.946;2023-04-06T00:58:02;100493.34;;;10.83;76.25
38022;BME280;23832;43.216;27.946;2023-04-06T01:00:04;100452.59;;;10.85;76.16
38022;BME280;23832;43.216;27.946;2023-04-06T01:02:08;100446.72;;;10.60;76.29
38022;BME280;23832;43.216;27.946;2023-04-06T01:04:10;100455.22;;;10.70;74.99
38022;BME280;23832;43.216;27.946;2023-04-06T01:06:15;100451.09;;;10.68;74.98
38022;BME280;23832;43.216;27.946;2023-04-06T01:08:17;100443.50;;;10.50;75.14
38022;BME280;23832;43.216;27.946;2023-04-06T01:10:22;100448.38;;;10.61;73.10
38022;BME280;23832;43.216;27.946;2023-04-06T01:12:25;100447.78;;;10.51;73.31
38022;BME280;23832;43.216;27.946;2023-04-06T01:14:27;100448.13;;;10.48;73.35
38022;BME280;23832;43.216;27.946;2023-04-06T01:16:29;100443.53;;;10.27;74.48
38022;BME280;23832;43.216;27.946;2023-04-06T01:18:32;100443.22;;;10.45;73.18
38022;BME280;23832;43.216;27.946;2023-04-06T01:20:34;100438.91;;;10.52;72.15
38022;BME280;23832;43.216;27.946;2023-04-06T01:22:38;100443.34;;;10.29;73.12
38022;BME280;23832;43.216;27.946;2023-04-06T01:24:40;100434.81;;;10.18;74.56
38022;BME280;23832;43.216;27.946;2023-04-06T01:26:42;100438.16;;;10.58;71.15
38022;BME280;23832;43.216;27.946;2023-04-06T01:28:45;100433.47;;;10.68;69.05
38022;BME280;23832;43.216;27.946;2023-04-06T01:30:47;100434.59;;;10.51;69.72
38022;BME280;23832;43.216;27.946;2023-04-06T01:32:48;100430.00;;;10.53;69.18
38022;BME280;23832;43.216;27.946;2023-04-06T01:34:50;100426.53;;;10.52;69.01
38022;BME280;23832;43.216;27.946;2023-04-06T01:36:52;100429.75;;;10.40;68.72
38022;BME280;23832;43.216;27.946;2023-04-06T01:38:56;100429.63;;;10.56;67.11
38022;BME280;23832;43.216;27.946;2023-04-06T01:40:58;100426.28;;;10.62;66.01
38022;BME280;23832;43.216;27.946;2023-04-06T01:43:00;100425.78;;;10.44;67.05
38022;BME280;23832;43.216;27.946;2023-04-06T01:45:02;100427.75;;;10.42;67.78
38022;BME280;23832;43.216;27.946;2023-04-06T01:47:04;100423.84;;;10.38;68.54
38022;BME280;23832;43.216;27.946;2023-04-06T01:49:08;100429.03;;;10.23;69.98
38022;BME280;23832;43.216;27.946;2023-04-06T01:51:10;100428.47;;;10.36;68.30
38022;BME280;23832;43.216;27.946;2023-04-06T01:53:14;100421.56;;;10.35;68.12
38022;BME280;23832;43.216;27.946;2023-04-06T01:55:18;100426.56;;;10.21;68.32
38022;BME280;23832;43.216;27.946;2023-04-06T01:57:20;100430.44;;;10.57;66.37
38022;BME280;23832;43.216;27.946;2023-04-06T01:59:22;100424.41;;;10.48;65.60
38022;BME280;23832;43.216;27.946;2023-04-06T02:01:24;100424.66;;;10.38;66.43
38022;BME280;23832;43.216;27.946;2023-04-06T02:03:26;100426.03;;;10.34;67.28
38022;BME280;23832;43.216;27.946;2023-04-06T02:05:29;100421.66;;;10.18;68.10
38022;BME280;23832;43.216;27.946;2023-04-06T02:07:32;100426.78;;;10.12;69.71
38022;BME280;23832;43.216;27.946;2023-04-06T02:09:33;100430.06;;;10.45;67.53
38022;BME280;23832;43.216;27.946;2023-04-06T02:11:37;100425.59;;;10.22;68.85
38022;BME280;23832;43.216;27.946;2023-04-06T02:13:39;100421.97;;;10.23;68.32
38022;BME280;23832;43.216;27.946;2023-04-06T02:15:42;100418.56;;;10.38;68.04
38022;BME280;23832;43.216;27.946;2023-04-06T02:17:43;100414.56;;;10.42;67.59
38022;BME280;23832;43.216;27.946;2023-04-06T02:19:46;100420.56;;;10.36;68.74
38022;BME280;23832;43.216;27.946;2023-04-06T02:21:48;100412.19;;;10.32;68.31
38022;BME280;23832;43.216;27.946;2023-04-06T02:23:50;100421.22;;;10.38;68.32
38022;BME280;23832;43.216;27.946;2023-04-06T02:25:53;100412.84;;;10.34;68.57
38022;BME280;23832;43.216;27.946;2023-04-06T02:27:56;100408.56;;;10.33;69.20
38022;BME280;23832;43.216;27.946;2023-04-06T02:29:58;100418.63;;;10.30;70.18
38022;BME280;23832;43.216;27.946;2023-04-06T02:32:00;100420.41;;;10.37;70.12
38022;BME280;23832;43.216;27.946;2023-04-06T02:34:03;100421.16;;;10.46;69.03
38022;BME280;23832;43.216;27.946;2023-04-06T02:36:05;100420.50;;;10.44;68.90
38022;BME280;23832;43.216;27.946;2023-04-06T02:38:06;100419.38;;;10.61;67.64
38022;BME280;23832;43.216;27.946;2023-04-06T02:40:09;100420.41;;;10.75;66.66
38022;BME280;23832;43.216;27.946;2023-04-06T02:42:11;100419.44;;;10.53;67.76
38022;BME280;23832;43.216;27.946;2023-04-06T02:44:16;100416.00;;;10.52;67.44
38022;BME280;23832;43.216;27.946;2023-04-06T02:46:18;100417.56;;;10.62;66.98
38022;BME280;23832;43.216;27.946;2023-04-06T02:48:20;100414.56;;;10.65;66.09
38022;BME280;23832;43.216;27.946;2023-04-06T02:50:22;100419.72;;;10.58;67.01
38022;BME280;23832;43.216;27.946;2023-04-06T02:52:25;100413.06;;;10.47;67.81
38022;BME280;23832;43.216;27.946;2023-04-06T02:54:27;100411.72;;;10.51;67.76
38022;BME280;23832;43.216;27.946;2023-04-06T02:56:29;100418.88;;;10.43;68.05
38022;BME280;23832;43.216;27.946;2023-04-06T02:58:31;100424.47;;;10.40;68.28
38022;BME280;23832;43.216;27.946;2023-04-06T03:00:34;100424.22;;;10.35;69.40
38022;BME280;23832;43.216;27.946;2023-04-06T03:02:36;100414.44;;;10.43;68.79
38022;BME280;23832;43.216;27.946;2023-04-06T03:04:38;100420.41;;;10.37;69.31
38022;BME280;23832;43.216;27.946;2023-04-06T03:06:40;100422.91;;;10.31;69.31
38022;BME280;23832;43.216;27.946;2023-04-06T03:08:42;100456.22;;;10.23;70.14
38022;BME280;23832;43.216;27.946;2023-04-06T03:10:44;100415.38;;;10.28;69.86
38022;BME280;23832;43.216;27.946;2023-04-06T03:12:46;100415.72;;;10.25;70.27
38022;BME280;23832;43.216;27.946;2023-04-06T03:14:48;100416.19;;;10.28;70.60
38022;BME280;23832;43.216;27.946;2023-04-06T03:16:52;100427.66;;;10.35;70.18
38022;BME280;23832;43.216;27.946;2023-04-06T03:18:54;100419.63;;;10.29;70.64
38022;BME280;23832;43.216;27.946;2023-04-06T03:20:56;100419.09;;;10.33;71.23
38022;BME280;23832;43.216;27.946;2023-04-06T03:23:01;100414.63;;;10.11;72.35
38022;BME280;23832;43.216;27.946;2023-04-06T03:25:03;100418.66;;;10.21;73.03
38022;BME280;23832;43.216;27.946;2023-04-06T03:27:05;100415.06;;;10.14;74.34
38022;BME280;23832;43.216;27.946;2023-04-06T03:29:07;100417.88;;;10.44;72.26
38022;BME280;23832;43.216;27.946;2023-04-06T03:31:09;100416.88;;;10.45;71.30
38022;BME280;23832;43.216;27.946;2023-04-06T03:33:12;100418.72;;;10.59;69.71
38022;BME280;23832;43.216;27.946;2023-04-06T03:35:14;100416.75;;;10.61;69.23
38022;BME280;23832;43.216;27.946;2023-04-06T03:37:16;100414.13;;;10.61;68.64
38022;BME280;23832;43.216;27.946;2023-04-06T03:39:18;100419.78;;;10.50;69.22
38022;BME280;23832;43.216;27.946;2023-04-06T03:41:21;100422.78;;;10.47;70.05
38022;BME280;23832;43.216;27.946;2023-04-06T03:43:24;100417.56;;;10.39;69.76
38022;BME280;23832;43.216;27.946;2023-04-06T03:45:26;100428.81;;;10.33;70.49
38022;BME280;23832;43.216;27.946;2023-04-06T03:47:28;100429.88;;;10.23;71.88
38022;BME280;23832;43.216;27.946;2023-04-06T03:49:32;100428.81;;;10.33;71.54
38022;BME280;23832;43.216;27.946;2023-04-06T03:51:34;100420.31;;;10.22;71.17
38022;BME280;23832;43.216;27.946;2023-04-06T03:53:35;100420.00;;;10.26;71.46
38022;BME280;23832;43.216;27.946;2023-04-06T03:55:38;100425.03;;;10.35;72.10
38022;BME280;23832;43.216;27.946;2023-04-06T03:57:40;100426.25;;;10.25;72.45
38022;BME280;23832;43.216;27.946;2023-04-06T03:59:41;100427.31;;;10.38;70.64
38022;BME280;23832;43.216;27.946;2023-04-06T04:01:45;100431.19;;;10.19;73.06
38022;BME280;23832;43.216;27.946;2023-04-06T04:03:47;100426.94;;;10.18;73.49
38022;BME280;23832;43.216;27.946;2023-04-06T04:05:50;100425.91;;;10.28;73.84
38022;BME280;23832;43.216;27.946;2023-04-06T04:07:52;100430.13;;;10.37;72.13
38022;BME280;23832;43.216;27.946;2023-04-06T04:09:54;100427.19;;;10.32;72.57
38022;BME280;23832;43.216;27.946;2023-04-06T04:11:56;100431.84;;;10.21;72.22
38022;BME280;23832;43.216;27.946;2023-04-06T04:13:58;100431.38;;;10.41;71.74
38022;BME280;23832;43.216;27.946;2023-04-06T04:16:00;100470.53;;;10.52;71.87
38022;BME280;23832;43.216;27.946;2023-04-06T04:18:02;100437.16;;;10.59;70.35
38022;BME280;23832;43.216;27.946;2023-04-06T04:20:07;100437.59;;;10.71;69.34
38022;BME280;23832;43.216;27.946;2023-04-06T04:22:10;100435.47;;;10.66;68.57
38022;BME280;23832;43.216;27.946;2023-04-06T04:24:12;100436.78;;;10.47;71.54
38022;BME280;23832;43.216;27.946;2023-04-06T04:26:14;100441.06;;;10.48;71.11
38022;BME280;23832;43.216;27.946;2023-04-06T04:28:16;100441.81;;;10.57;70.09
38022;BME280;23832;43.216;27.946;2023-04-06T04:30:18;100435.09;;;10.55;70.65
38022;BME280;23832;43.216;27.946;2023-04-06T04:32:19;100439.69;;;10.75;67.78
38022;BME280;23832;43.216;27.946;2023-04-06T04:34:21;100429.00;;;10.69;67.44
38022;BME280;23832;43.216;27.946;2023-04-06T04:36:25;100431.50;;;10.70;67.84
38022;BME280;23832;43.216;27.946;2023-04-06T04:38:33;100429.75;;;10.77;66.33
38022;BME280;23832;43.216;27.946;2023-04-06T04:40:36;100431.94;;;10.74;65.43
38022;BME280;23832;43.216;27.946;2023-04-06T04:42:38;100432.19;;;10.64;65.71
38022;BME280;23832;43.216;27.946;2023-04-06T04:44:40;100427.06;;;10.48;66.28
38022;BME280;23832;43.216;27.946;2023-04-06T04:46:42;100422.09;;;10.53;65.45
38022;BME280;23832;43.216;27.946;2023-04-06T04:48:43;100423.66;;;10.39;66.42
38022;BME280;23832;43.216;27.946;2023-04-06T04:50:45;100428.59;;;10.42;66.23
38022;BME280;23832;43.216;27.946;2023-04-06T04:52:47;100425.53;;;10.54;65.12
38022;BME280;23832;43.216;27.946;2023-04-06T04:54:51;100416.16;;;10.51;64.48
38022;BME280;23832;43.216;27.946;2023-04-06T04:56:53;100423.84;;;10.38;64.61
38022;BME280;23832;43.216;27.946;2023-04-06T04:58:55;100427.31;;;10.38;63.89
38022;BME280;23832;43.216;27.946;2023-04-06T05:00:57;100429.06;;;10.46;63.49
38022;BME280;23832;43.216;27.946;2023-04-06T05:03:00;100432.34;;;10.48;62.93
38022;BME280;23832;43.216;27.946;2023-04-06T05:05:02;100433.09;;;10.57;62.18
38022;BME280;23832;43.216;27.946;2023-04-06T05:07:04;100432.34;;;10.48;61.96
38022;BME280;23832;43.216;27.946;2023-04-06T05:09:07;100435.50;;;10.43;63.03
38022;BME280;23832;43.216;27.946;2023-04-06T05:11:10;100434.31;;;10.23;63.23
38022;BME280;23832;43.216;27.946;2023-04-06T05:13:12;100434.31;;;10.46;62.27
38022;BME280;23832;43.216;27.946;2023-04-06T05:15:15;100438.81;;;10.60;62.11
38022;BME280;23832;43.216;27.946;2023-04-06T05:17:17;100434.91;;;10.56;61.89
38022;BME280;23832;43.216;27.946;2023-04-06T05:19:18;100431.84;;;10.67;61.27
38022;BME280;23832;43.216;27.946;2023-04-06T05:21:20;100433.53;;;10.60;61.94
38022;BME280;23832;43.216;27.946;2023-04-06T05:23:22;100435.47;;;10.66;62.20
38022;BME280;23832;43.216;27.946;2023-04-06T05:25:24;100433.91;;;10.57;62.07
38022;BME280;23832;43.216;27.946;2023-04-06T05:27:28;100439.88;;;10.51;62.70
38022;BME280;23832;43.216;27.946;2023-04-06T05:29:30;100438.66;;;10.62;62.26
38022;BME280;23832;43.216;27.946;2023-04-06T05:31:32;100442.09;;;10.62;62.63
38022;BME280;23832;43.216;27.946;2023-04-06T05:33:35;100437.22;;;10.74;62.38
38022;BME280;23832;43.216;27.946;2023-04-06T05:35:37;100435.69;;;10.79;61.96
38022;BME280;23832;43.216;27.946;2023-04-06T05:37:39;100436.84;;;10.77;62.16
38022;BME280;23832;43.216;27.946;2023-04-06T05:39:41;100424.06;;;10.89;61.59
38022;BME280;23832;43.216;27.946;2023-04-06T05:41:43;100421.97;;;11.14;60.82
38022;BME280;23832;43.216;27.946;2023-04-06T05:43:46;100424.88;;;11.04;60.09
38022;BME280;23832;43.216;27.946;2023-04-06T05:45:48;100422.78;;;11.14;60.35
38022;BME280;23832;43.216;27.946;2023-04-06T05:47:50;100421.63;;;11.17;59.84
38022;BME280;23832;43.216;27.946;2023-04-06T05:49:52;100413.25;;;10.98;60.66
38022;BME280;23832;43.216;27.946;2023-04-06T05:51:54;100424.25;;;11.02;59.93
38022;BME280;23832;43.216;27.946;2023-04-06T05:53:56;100422.09;;;11.20;60.47
38022;BME280;23832;43.216;27.946;2023-04-06T05:56:00;100413.00;;;11.08;61.44
38022;BME280;23832;43.216;27.946;2023-04-06T05:58:04;100421.00;;;11.29;60.47
38022;BME280;23832;43.216;27.946;2023-04-06T06:00:09;100423.09;;;11.19;60.52
38022;BME280;23832;43.216;27.946;2023-04-06T06:02:11;100411.63;;;11.42;59.91
38022;BME280;23832;43.216;27.946;2023-04-06T06:04:12;100419.94;;;11.75;57.85
38022;BME280;23832;43.216;27.946;2023-04-06T06:06:15;100419.34;;;11.94;56.37
38022;BME280;23832;43.216;27.946;2023-04-06T06:08:17;100422.91;;;12.01;70.28
38022;BME280;23832;43.216;27.946;2023-04-06T06:10:19;100415.66;;;11.88;62.26
38022;BME280;23832;43.216;27.946;2023-04-06T06:12:21;100418.75;;;11.77;60.15
38022;BME280;23832;43.216;27.946;2023-04-06T06:14:22;100415.88;;;11.57;59.98
38022;BME280;23832;43.216;27.946;2023-04-06T06:16:26;100409.16;;;11.25;59.64
38022;BME280;23832;43.216;27.946;2023-04-06T06:18:28;100415.25;;;11.41;59.14
38022;BME280;23832;43.216;27.946;2023-04-06T06:20:29;100404.72;;;11.77;58.03
38022;BME280;23832;43.216;27.946;2023-04-06T06:22:32;100412.94;;;11.67;57.39
38022;BME280;23832;43.216;27.946;2023-04-06T06:24:34;100416.13;;;11.62;56.88
38022;BME280;23832;43.216;27.946;2023-04-06T06:26:36;100415.81;;;11.51;57.57
38022;BME280;23832;43.216;27.946;2023-04-06T06:28:40;100418.88;;;11.40;57.96
38022;BME280;23832;43.216;27.946;2023-04-06T06:30:42;100419.84;;;11.68;56.99
38022;BME280;23832;43.216;27.946;2023-04-06T06:32:46;100423.50;;;11.67;57.37
38022;BME280;23832;43.216;27.946;2023-04-06T06:34:48;100421.31;;;11.71;56.77
38022;BME280;23832;43.216;27.946;2023-04-06T06:36:50;100415.66;;;11.59;57.25
38022;BME280;23832;43.216;27.946;2023-04-06T06:38:54;100419.84;;;11.68;56.16
38022;BME280;23832;43.216;27.946;2023-04-06T06:40:57;100410.72;;;11.85;56.75
38022;BME280;23832;43.216;27.946;2023-04-06T06:42:59;100417.19;;;11.98;56.84
38022;BME280;23832;43.216;27.946;2023-04-06T06:45:01;100415.56;;;12.18;55.27
38022;BME280;23832;43.216;27.946;2023-04-06T06:47:03;100416.13;;;12.35;55.45
38022;BME280;23832;43.216;27.946;2023-04-06T06:49:06;100412.91;;;12.39;56.45
38022;BME280;23832;43.216;27.946;2023-04-06T06:51:08;100419.19;;;12.88;56.23
38022;BME280;23832;43.216;27.946;2023-04-06T06:53:12;100415.75;;;12.94;55.07
38022;BME280;23832;43.216;27.946;2023-04-06T06:55:14;100413.63;;;13.11;54.34
38022;BME280;23832;43.216;27.946;2023-04-06T06:57:16;100412.09;;;13.64;52.13
38022;BME280;23832;43.216;27.946;2023-04-06T06:59:18;100411.75;;;13.80;51.38
38022;BME280;23832;43.216;27.946;2023-04-06T07:01:21;100412.63;;;13.94;51.38
38022;BME280;23832;43.216;27.946;2023-04-06T07:03:23;100412.28;;;14.30;50.17
38022;BME280;23832;43.216;27.946;2023-04-06T07:05:27;100414.13;;;14.89;48.55
38022;BME280;23832;43.216;27.946;2023-04-06T07:07:31;100412.50;;;15.01;48.50
38022;BME280;23832;43.216;27.946;2023-04-06T07:09:33;100420.50;;;15.66;47.29
38022;BME280;23832;43.216;27.946;2023-04-06T07:11:35;100416.78;;;16.12;46.74
38022;BME280;23832;43.216;27.946;2023-04-06T07:13:37;100416.25;;;16.53;45.51
38022;BME280;23832;43.216;27.946;2023-04-06T07:15:38;100412.84;;;16.71;44.75
38022;BME280;23832;43.216;27.946;2023-04-06T07:17:41;100412.94;;;17.63;43.45
38022;BME280;23832;43.216;27.946;2023-04-06T07:19:45;100415.34;;;18.12;43.01
38022;BME280;23832;43.216;27.946;2023-04-06T07:21:48;100407.00;;;18.62;42.31
38022;BME280;23832;43.216;27.946;2023-04-06T07:23:50;100416.34;;;19.47;41.48
38022;BME280;23832;43.216;27.946;2023-04-06T07:25:53;100409.09;;;20.45;39.88
38022;BME280;23832;43.216;27.946;2023-04-06T07:27:55;100414.94;;;21.31;38.42
38022;BME280;23832;43.216;27.946;2023-04-06T07:29:59;100414.44;;;21.82;36.23
38022;BME280;23832;43.216;27.946;2023-04-06T07:32:03;100416.13;;;21.23;37.41
38022;BME280;23832;43.216;27.946;2023-04-06T07:34:05;100405.72;;;21.70;36.21
38022;BME280;23832;43.216;27.946;2023-04-06T07:36:08;100404.75;;;21.33;36.23
38022;BME280;23832;43.216;27.946;2023-04-06T07:38:11;100406.03;;;22.23;35.74
38022;BME280;23832;43.216;27.946;2023-04-06T07:40:14;100405.75;;;22.56;35.67
38022;BME280;23832;43.216;27.946;2023-04-06T07:42:16;100405.44;;;22.85;34.94
38022;BME280;23832;43.216;27.946;2023-04-06T07:44:18;100399.19;;;23.27;33.47
38022;BME280;23832;43.216;27.946;2023-04-06T07:46:20;100404.31;;;24.16;32.79
38022;BME280;23832;43.216;27.946;2023-04-06T07:48:21;100403.16;;;23.66;32.43
38022;BME280;23832;43.216;27.946;2023-04-06T07:50:24;100403.22;;;23.92;32.64
38022;BME280;23832;43.216;27.946;2023-04-06T07:52:26;100402.72;;;24.56;31.59
38022;BME280;23832;43.216;27.946;2023-04-06T07:54:29;100397.00;;;24.93;31.18
38022;BME280;23832;43.216;27.946;2023-04-06T07:56:31;100400.50;;;23.97;31.64
38022;BME280;23832;43.216;27.946;2023-04-06T07:58:33;100395.00;;;23.51;32.65
38022;BME280;23832;43.216;27.946;2023-04-06T08:00:35;100401.31;;;23.97;31.44
38022;BME280;23832;43.216;27.946;2023-04-06T08:02:37;100403.25;;;24.53;30.97
38022;BME280;23832;43.216;27.946;2023-04-06T08:04:39;100399.13;;;25.16;30.66
38022;BME280;23832;43.216;27.946;2023-04-06T08:06:40;100407.38;;;25.45;30.17
38022;BME280;23832;43.216;27.946;2023-04-06T08:08:42;100406.63;;;25.30;29.90
38022;BME280;23832;43.216;27.946;2023-04-06T08:10:46;100399.69;;;25.73;30.30
38022;BME280;23832;43.216;27.946;2023-04-06T08:12:48;100398.28;;;26.20;28.85
38022;BME280;23832;43.216;27.946;2023-04-06T08:14:51;100399.50;;;26.72;28.91
38022;BME280;23832;43.216;27.946;2023-04-06T08:16:53;100390.19;;;26.20;28.79
38022;BME280;23832;43.216;27.946;2023-04-06T08:18:55;100388.56;;;26.82;28.38
38022;BME280;23832;43.216;27.946;2023-04-06T08:20:56;100388.09;;;26.46;28.38
38022;BME280;23832;43.216;27.946;2023-04-06T08:22:58;100384.63;;;25.57;29.09
38022;BME280;23832;43.216;27.946;2023-04-06T12:32:40;100322.31;;;19.10;37.14
38022;BME280;23832;43.216;27.946;2023-04-06T12:34:42;100323.75;;;18.42;37.79
38022;BME280;23832;43.216;27.946;2023-04-06T12:36:44;100316.69;;;18.24;37.99
38022;BME280;23832;43.216;27.946;2023-04-06T12:38:46;100324.22;;;18.27;37.88
38022;BME280;23832;43.216;27.946;2023-04-06T12:40:48;100320.84;;;18.20;38.46
38022;BME280;23832;43.216;27.946;2023-04-06T12:42:50;100326.19;;;18.55;38.08
38022;BME280;23832;43.216;27.946;2023-04-06T12:44:52;100323.28;;;18.68;37.91
38022;BME280;23832;43.216;27.946;2023-04-06T12:46:54;100323.53;;;18.43;38.23
38022;BME280;23832;43.216;27.946;2023-04-06T12:48:57;100327.66;;;18.04;39.01
38022;BME280;23832;43.216;27.946;2023-04-06T12:51:00;100328.50;;;18.17;39.01
38022;BME280;23832;43.216;27.946;2023-04-06T12:53:02;100337.66;;;17.79;40.62
38022;BME280;23832;43.216;27.946;2023-04-06T12:55:04;100337.53;;;17.44;43.74
38022;BME280;23832;43.216;27.946;2023-04-06T12:57:06;100349.59;;;16.73;47.49
38022;BME280;23832;43.216;27.946;2023-04-06T12:59:07;100350.94;;;16.32;51.07
38022;BME280;23832;43.216;27.946;2023-04-06T13:01:10;100381.25;;;17.73;49.60
38022;BME280;23832;43.216;27.946;2023-04-06T13:03:13;100330.16;;;16.91;51.38
38022;BME280;23832;43.216;27.946;2023-04-06T13:05:16;100328.72;;;16.88;51.04
38022;BME280;23832;43.216;27.946;2023-04-06T13:07:18;100347.53;;;15.62;55.74
38022;BME280;23832;43.216;27.946;2023-04-06T13:09:22;100336.75;;;15.44;57.99
38022;BME280;23832;43.216;27.946;2023-04-06T13:11:25;100327.44;;;15.73;57.93
38022;BME280;23832;43.216;27.946;2023-04-06T13:13:27;100340.69;;;16.11;58.11
38022;BME280;23832;43.216;27.946;2023-04-06T13:15:29;100340.66;;;15.34;62.42
38022;BME280;23832;43.216;27.946;2023-04-06T13:17:32;100339.09;;;16.03;59.28
38022;BME280;23832;43.216;27.946;2023-04-06T13:19:33;100334.63;;;15.66;60.21
38022;BME280;23832;43.216;27.946;2023-04-06T13:21:37;100335.22;;;15.74;61.25
38022;BME280;23832;43.216;27.946;2023-04-06T13:23:39;100334.69;;;15.91;61.16
38022;BME280;23832;43.216;27.946;2023-04-06T13:25:41;100330.41;;;15.45;64.21
38022;BME280;23832;43.216;27.946;2023-04-06T13:27:45;100334.03;;;15.57;64.96
38022;BME280;23832;43.216;27.946;2023-04-06T13:29:48;100336.59;;;15.39;65.18
38022;BME280;23832;43.216;27.946;2023-04-06T13:31:50;100333.44;;;15.10;66.09
38022;BME280;23832;43.216;27.946;2023-04-06T13:33:52;100337.09;;;15.54;62.15
38022;BME280;23832;43.216;27.946;2023-04-06T13:35:54;100327.06;;;15.63;62.27
38022;BME280;23832;43.216;27.946;2023-04-06T13:37:57;100329.53;;;15.64;62.48
38022;BME280;23832;43.216;27.946;2023-04-06T13:39:59;100332.19;;;15.64;63.74
38022;BME280;23832;43.216;27.946;2023-04-06T13:42:01;100327.84;;;16.26;62.60
38022;BME280;23832;43.216;27.946;2023-04-06T13:44:03;100331.56;;;15.62;64.26
38022;BME280;23832;43.216;27.946;2023-04-06T13:46:05;100333.06;;;15.45;65.98
38022;BME280;23832;43.216;27.946;2023-04-06T13:48:06;100335.13;;;15.43;67.35
38022;BME280;23832;43.216;27.946;2023-04-06T13:50:08;100347.22;;;15.39;68.75
38022;BME280;23832;43.216;27.946;2023-04-06T13:52:10;100331.88;;;15.41;68.44
38022;BME280;23832;43.216;27.946;2023-04-06T13:54:13;100334.97;;;14.53;75.71
38022;BME280;23832;43.216;27.946;2023-04-06T13:56:15;100344.56;;;14.74;77.37
38022;BME280;23832;43.216;27.946;2023-04-06T13:58:17;100339.84;;;14.63;77.03
38022;BME280;23832;43.216;27.946;2023-04-06T14:00:19;100329.88;;;14.58;77.68
38022;BME280;23832;43.216;27.946;2023-04-06T14:02:20;100340.66;;;14.63;78.27
38022;BME280;23832;43.216;27.946;2023-04-06T14:04:27;100333.97;;;14.47;81.73
38022;BME280;23832;43.216;27.946;2023-04-06T14:06:28;100337.84;;;14.52;78.75
38022;BME280;23832;43.216;27.946;2023-04-06T14:08:30;100341.69;;;14.75;79.21
38022;BME280;23832;43.216;27.946;2023-04-06T14:10:37;100338.44;;;14.60;78.82
38022;BME280;23832;43.216;27.946;2023-04-06T14:12:40;100328.41;;;14.36;80.47
38022;BME280;23832;43.216;27.946;2023-04-06T14:14:42;100376.38;;;14.21;81.71
38022;BME280;23832;43.216;27.946;2023-04-06T14:16:44;100324.97;;;14.62;79.12
38022;BME280;23832;43.216;27.946;2023-04-06T14:18:46;100334.94;;;14.27;82.48
38022;BME280;23832;43.216;27.946;2023-04-06T14:20:53;100335.38;;;14.24;83.46
38022;BME280;23832;43.216;27.946;2023-04-06T14:22:55;100335.97;;;14.06;84.57
38022;BME280;23832;43.216;27.946;2023-04-06T14:24:57;100333.31;;;14.26;85.71
38022;BME280;23832;43.216;27.946;2023-04-06T14:27:00;100330.84;;;13.78;91.54
38022;BME280;23832;43.216;27.946;2023-04-06T14:29:02;100335.88;;;13.53;100.00
38022;BME280;23832;43.216;27.946;2023-04-06T14:31:09;100339.84;;;13.97;98.17
38022;BME280;23832;43.216;27.946;2023-04-06T14:33:11;100344.59;;;13.40;100.00
38022;BME280;23832;43.216;27.946;2023-04-06T14:35:13;100343.41;;;13.49;100.00
38022;BME280;23832;43.216;27.946;2023-04-06T14:37:15;100339.22;;;14.01;99.85
38022;BME280;23832;43.216;27.946;2023-04-06T14:39:17;100342.63;;;13.69;100.00